createdAt,value
2022-07-25T00:00:16.340Z,9.80
2022-07-25T00:02:44.947Z,10.88
2022-07-25T00:05:13.373Z,9.50
2022-07-25T00:07:43.063Z,10.07
2022-07-25T00:10:12.315Z,10.10
2022-07-25T00:12:40.995Z,10.38
2022-07-25T00:15:10.557Z,10.02
2022-07-25T00:17:39.893Z,10.10
2022-07-25T00:20:10.338Z,9.40
2022-07-25T00:22:38.691Z,10.90
2022-07-25T00:25:09.562Z,9.98
2022-07-25T00:27:37.839Z,9.90
2022-07-25T00:30:08.002Z,10.15
2022-07-25T00:32:36.577Z,10.20
2022-07-25T00:35:05.578Z,10.60
2022-07-25T00:37:33.930Z,10.45
2022-07-25T00:40:03.441Z,9.95
2022-07-25T00:42:34.366Z,10.05
2022-07-25T00:45:02.672Z,10.45
2022-07-25T00:47:31.386Z,9.80
2022-07-25T00:49:59.994Z,10.63
2022-07-25T00:52:28.760Z,10.20
2022-07-25T00:54:57.843Z,10.07
2022-07-25T00:57:26.396Z,9.88
2022-07-25T00:59:56.101Z,10.02
2022-07-25T01:02:24.981Z,10.20
2022-07-25T01:04:54.439Z,10.55
2022-07-25T01:07:22.986Z,10.30
2022-07-25T01:09:51.769Z,10.77
2022-07-25T01:12:20.457Z,10.68
2022-07-25T01:14:48.724Z,10.90
2022-07-25T01:17:18.711Z,10.80
2022-07-25T01:19:47.364Z,10.73
2022-07-25T01:22:16.976Z,10.68
2022-07-25T01:24:45.586Z,10.85
2022-07-25T01:27:17.183Z,11.73
2022-07-25T01:29:45.895Z,10.75
2022-07-25T01:32:14.196Z,11.15
2022-07-25T01:34:42.780Z,10.90
2022-07-25T01:37:11.047Z,11.23
2022-07-25T01:39:40.655Z,10.82
2022-07-25T01:42:09.056Z,11.50
2022-07-25T01:44:37.647Z,11.50
2022-07-25T01:47:06.303Z,11.00
2022-07-25T01:49:35.001Z,10.50
2022-07-25T01:52:03.733Z,11.02
2022-07-25T01:54:32.226Z,10.85
2022-07-25T01:57:01.900Z,11.40
2022-07-25T01:59:30.579Z,11.07
2022-07-25T02:01:58.929Z,11.52
2022-07-25T02:04:27.361Z,11.13
2022-07-25T02:06:55.765Z,11.35
2022-07-25T02:09:24.399Z,11.20
2022-07-25T02:11:53.025Z,11.23
2022-07-25T02:14:24.225Z,11.18
2022-07-25T02:16:52.727Z,10.93
2022-07-25T02:19:21.114Z,10.38
2022-07-25T02:21:49.443Z,10.40
2022-07-25T02:24:17.808Z,11.20
2022-07-25T02:26:46.407Z,10.57
2022-07-25T02:29:14.673Z,11.07
2022-07-25T02:31:44.323Z,10.77
2022-07-25T02:34:13.988Z,10.30
2022-07-25T02:36:42.394Z,11.43
2022-07-25T02:39:10.705Z,11.00
2022-07-25T02:41:39.307Z,10.98
2022-07-25T02:44:08.417Z,10.93
2022-07-25T02:46:37.308Z,10.48
2022-07-25T02:49:07.108Z,10.77
2022-07-25T02:51:35.471Z,11.30
2022-07-25T02:54:03.771Z,11.38
2022-07-25T02:56:33.232Z,11.35
2022-07-25T02:59:01.907Z,11.50
2022-07-25T03:01:30.809Z,11.45
2022-07-25T03:03:59.248Z,11.13
2022-07-25T03:06:29.070Z,10.93
2022-07-25T03:08:57.383Z,10.93
2022-07-25T03:11:25.647Z,11.70
2022-07-25T03:13:54.954Z,11.10
2022-07-25T03:16:23.289Z,11.00
2022-07-25T03:18:52.183Z,11.30
2022-07-25T03:21:20.526Z,11.10
2022-07-25T03:23:52.716Z,11.50
2022-07-25T03:26:21.733Z,11.40
2022-07-25T03:28:50.087Z,11.25
2022-07-25T03:31:18.443Z,12.02
2022-07-25T03:33:47.064Z,11.32
2022-07-25T03:36:15.365Z,11.68
2022-07-25T03:38:43.627Z,11.95
2022-07-25T03:41:13.963Z,11.55
2022-07-25T03:43:42.262Z,11.13
2022-07-25T03:46:10.613Z,11.95
2022-07-25T03:48:39.058Z,10.63
2022-07-25T03:51:07.607Z,10.52
2022-07-25T03:53:56.745Z,11.13
2022-07-25T03:56:26.470Z,10.82
2022-07-25T03:58:55.031Z,10.82
2022-07-25T04:01:23.694Z,10.65
2022-07-25T04:03:55.437Z,11.02
2022-07-25T04:06:24.483Z,11.40
2022-07-25T04:08:53.273Z,10.82
2022-07-25T04:11:21.693Z,10.60
2022-07-25T04:13:52.681Z,11.32
2022-07-25T04:16:22.713Z,10.43
2022-07-25T04:18:52.300Z,10.93
2022-07-25T04:21:21.068Z,10.98
2022-07-25T04:23:49.873Z,10.30
2022-07-25T04:26:18.828Z,10.52
2022-07-25T04:28:47.250Z,10.60
2022-07-25T04:31:17.154Z,9.98
2022-07-25T04:33:46.230Z,10.73
2022-07-25T04:36:14.612Z,10.05
2022-07-25T04:38:43.083Z,10.00
2022-07-25T04:41:11.698Z,10.93
2022-07-25T04:43:43.597Z,10.07
2022-07-25T04:46:19.450Z,10.57
2022-07-25T04:48:48.150Z,10.70
2022-07-25T04:51:16.945Z,10.48
2022-07-25T04:53:45.685Z,9.95
2022-07-25T04:56:14.087Z,10.02
2022-07-25T04:58:42.454Z,10.02
2022-07-25T05:01:10.814Z,9.32
2022-07-25T05:03:40.571Z,9.65
2022-07-25T05:06:09.631Z,10.40
2022-07-25T05:08:38.275Z,9.82
2022-07-25T05:11:06.869Z,9.55
2022-07-25T05:13:35.367Z,9.32
2022-07-25T05:16:03.933Z,9.68
2022-07-25T05:18:32.277Z,9.52
2022-07-25T05:21:02.023Z,9.85
2022-07-25T05:23:30.665Z,9.23
2022-07-25T05:25:58.939Z,8.80
2022-07-25T05:28:27.311Z,9.73
2022-07-25T05:30:55.611Z,9.35
2022-07-25T05:33:23.862Z,9.02
2022-07-25T05:35:52.136Z,9.60
2022-07-25T05:38:21.762Z,9.25
2022-07-25T05:40:52.140Z,9.63
2022-07-25T05:43:20.834Z,9.02
2022-07-25T05:45:49.222Z,9.35
2022-07-25T05:48:17.700Z,9.07
2022-07-25T05:50:46.985Z,9.50
2022-07-25T05:53:15.215Z,9.98
2022-07-25T05:55:44.834Z,9.63
2022-07-25T05:58:13.130Z,9.30
2022-07-25T06:00:41.808Z,9.45
2022-07-25T06:03:10.167Z,9.32
2022-07-25T06:05:38.540Z,9.32
2022-07-25T06:08:07.327Z,9.43
2022-07-25T06:10:35.704Z,9.48
2022-07-25T06:13:07.254Z,9.63
2022-07-25T06:15:36.048Z,9.50
2022-07-25T06:18:04.455Z,10.13
2022-07-25T06:20:32.777Z,9.65
2022-07-25T06:23:03.186Z,10.00
2022-07-25T06:25:31.706Z,8.90
2022-07-25T06:28:01.066Z,9.63
2022-07-25T06:30:31.017Z,9.75
2022-07-25T06:32:59.450Z,9.60
2022-07-25T06:35:27.782Z,9.88
2022-07-25T06:37:55.994Z,9.50
2022-07-25T06:40:24.450Z,9.13
2022-07-25T06:42:53.595Z,9.25
2022-07-25T06:45:24.136Z,9.48
2022-07-25T06:47:54.787Z,9.45
2022-07-25T06:50:23.133Z,12.75
2022-07-25T06:52:51.894Z,10.70
2022-07-25T06:55:20.496Z,9.82
2022-07-25T06:57:48.841Z,10.30
2022-07-25T07:00:17.886Z,8.85
2022-07-25T07:02:51.902Z,8.80
2022-07-25T07:05:23.343Z,9.18
2022-07-25T07:07:51.932Z,9.40
2022-07-25T07:10:20.855Z,10.32
2022-07-25T07:12:50.308Z,9.48
2022-07-25T07:15:20.874Z,10.57
2022-07-25T07:17:49.301Z,9.63
2022-07-25T07:20:17.847Z,10.23
2022-07-25T07:22:50.244Z,9.52
2022-07-25T07:25:24.960Z,10.50
2022-07-25T07:28:07.913Z,10.30
2022-07-25T07:31:05.576Z,9.75
2022-07-25T07:33:24.941Z,9.90
2022-07-25T07:35:57.273Z,10.32
2022-07-25T07:38:27.713Z,9.80
2022-07-25T07:40:59.331Z,10.10
2022-07-25T07:43:31.935Z,10.15
2022-07-25T07:46:02.048Z,11.40
2022-07-25T07:48:31.407Z,10.02
2022-07-25T07:51:01.013Z,10.05
2022-07-25T07:53:45.210Z,11.38
2022-07-25T07:56:13.958Z,10.40
2022-07-25T07:58:42.293Z,10.98
2022-07-25T08:01:10.590Z,10.25
2022-07-25T08:03:39.291Z,10.40
2022-07-25T08:06:08.467Z,10.65
2022-07-25T08:08:38.066Z,10.65
2022-07-25T08:11:06.773Z,9.63
2022-07-25T08:13:38.003Z,10.82
2022-07-25T08:16:07.834Z,10.70
2022-07-25T08:18:36.192Z,10.65
2022-07-25T08:21:06.433Z,10.40
2022-07-25T08:23:38.969Z,10.35
2022-07-25T08:26:08.168Z,10.63
2022-07-25T08:28:36.426Z,10.02
2022-07-25T08:31:04.878Z,10.80
2022-07-25T08:33:33.392Z,10.30
2022-07-25T08:36:01.913Z,10.25
2022-07-25T08:38:30.653Z,10.30
2022-07-25T08:41:02.862Z,10.27
2022-07-25T08:43:33.711Z,10.02
2022-07-25T08:46:03.450Z,10.18
2022-07-25T08:48:32.230Z,10.27
2022-07-25T08:51:04.173Z,10.85
2022-07-25T08:53:35.061Z,10.45
2022-07-25T08:56:12.564Z,9.77
2022-07-25T08:58:44.793Z,10.57
2022-07-25T09:01:13.753Z,10.85
2022-07-25T09:03:44.117Z,10.73
2022-07-25T09:06:18.903Z,11.02
2022-07-25T09:08:56.014Z,10.48
2022-07-25T09:11:34.555Z,10.93
2022-07-25T09:14:07.093Z,9.70
2022-07-25T09:16:40.311Z,10.30
2022-07-25T09:19:16.060Z,9.85
2022-07-25T09:21:46.565Z,9.65
2022-07-25T09:24:22.491Z,10.57
2022-07-25T09:26:58.067Z,10.05
2022-07-25T09:29:29.011Z,10.48
2022-07-25T09:31:59.989Z,10.30
2022-07-25T09:34:38.034Z,10.18
2022-07-25T09:37:08.921Z,10.60
2022-07-25T09:39:45.810Z,9.70
2022-07-25T09:42:26.799Z,10.18
2022-07-25T09:45:06.408Z,10.57
2022-07-25T09:47:50.227Z,10.27
2022-07-25T09:50:20.052Z,10.43
2022-07-25T09:52:48.701Z,10.73
2022-07-25T09:55:17.081Z,10.57
2022-07-25T09:57:47.281Z,10.05
2022-07-25T10:00:21.404Z,9.80
2022-07-25T10:02:59.518Z,10.05
2022-07-25T10:05:46.078Z,10.30
2022-07-25T10:08:14.970Z,9.40
2022-07-25T10:10:44.043Z,10.10
2022-07-25T10:13:18.028Z,10.48
2022-07-25T10:15:50.138Z,9.85
2022-07-25T10:18:22.191Z,9.75
2022-07-25T10:20:54.632Z,10.00
2022-07-25T10:23:25.986Z,9.73
2022-07-25T10:26:09.075Z,9.75
2022-07-25T10:28:43.337Z,10.35
2022-07-25T10:31:22.959Z,9.65
2022-07-25T10:33:57.313Z,9.32
2022-07-25T10:36:29.399Z,9.10
2022-07-25T10:39:02.792Z,9.07
2022-07-25T10:41:31.088Z,8.98
2022-07-25T10:44:04.011Z,9.88
2022-07-25T10:46:36.732Z,9.73
2022-07-25T10:49:08.425Z,9.60
2022-07-25T10:51:41.820Z,9.57
2022-07-25T10:54:15.641Z,9.50
2022-07-25T10:56:55.398Z,9.15
2022-07-25T10:59:35.908Z,9.45
2022-07-25T11:02:06.605Z,9.18
2022-07-25T11:04:35.631Z,9.25
2022-07-25T11:07:11.257Z,9.98
2022-07-25T11:09:40.703Z,10.02
2022-07-25T11:12:10.154Z,10.00
2022-07-25T11:14:42.665Z,10.27
2022-07-25T11:17:15.688Z,10.13
2022-07-25T11:19:46.159Z,9.85
2022-07-25T11:22:14.493Z,9.55
2022-07-25T11:24:45.213Z,9.30
2022-07-25T11:27:21.467Z,9.38
2022-07-25T11:29:51.667Z,9.40
2022-07-25T11:32:21.045Z,9.55
2022-07-25T11:34:53.905Z,10.23
2022-07-25T11:37:23.174Z,10.07
2022-07-25T11:39:52.955Z,10.10
2022-07-25T11:42:22.486Z,10.63
2022-07-25T11:44:54.523Z,10.88
2022-07-25T11:47:28.667Z,10.40
2022-07-25T11:49:59.230Z,9.65
2022-07-25T11:52:31.199Z,10.25
2022-07-25T11:55:02.055Z,8.77
2022-07-25T11:57:33.877Z,9.10
2022-07-25T12:00:09.100Z,8.10
2022-07-25T12:02:37.900Z,8.20
2022-07-25T12:05:09.592Z,8.38
2022-07-25T12:07:40.841Z,8.13
2022-07-25T12:10:13.201Z,6.50
2022-07-25T12:12:48.638Z,5.50
2022-07-25T12:15:22.274Z,6.30
2022-07-25T12:17:51.875Z,5.88
2022-07-25T12:20:22.587Z,6.40
2022-07-25T12:22:53.482Z,6.20
2022-07-25T12:25:26.324Z,6.30
2022-07-25T12:27:58.790Z,6.03
2022-07-25T12:30:30.315Z,6.45
2022-07-25T12:33:00.105Z,6.90
2022-07-25T12:35:29.707Z,6.50
2022-07-25T12:37:58.324Z,6.95
2022-07-25T12:40:27.229Z,6.65
2022-07-25T12:42:55.528Z,6.88
2022-07-25T12:45:24.470Z,7.10
2022-07-25T12:47:54.650Z,6.55
2022-07-25T12:50:25.679Z,6.47
2022-07-25T12:52:54.548Z,6.65
2022-07-25T12:55:23.018Z,6.80
2022-07-25T12:57:52.538Z,6.68
2022-07-25T13:00:23.630Z,6.43
2022-07-25T13:02:55.972Z,6.60
2022-07-25T13:05:25.915Z,6.82
2022-07-25T13:07:54.365Z,7.35
2022-07-25T13:10:22.766Z,7.57
2022-07-25T13:12:51.836Z,7.25
2022-07-25T13:15:23.261Z,7.15
2022-07-25T13:17:53.863Z,7.20
2022-07-25T13:20:22.307Z,6.75
2022-07-25T13:22:50.942Z,7.25
2022-07-25T13:25:19.661Z,6.50
2022-07-25T13:27:49.558Z,7.38
2022-07-25T13:30:18.268Z,6.95
2022-07-25T13:32:46.777Z,6.55
2022-07-25T13:35:20.427Z,6.88
2022-07-25T13:37:50.255Z,6.90
2022-07-25T13:40:18.535Z,6.72
2022-07-25T13:42:46.879Z,6.95
2022-07-25T13:45:15.523Z,7.18
2022-07-25T13:47:43.946Z,6.90
2022-07-25T13:50:12.385Z,6.97
2022-07-25T13:52:42.090Z,6.97
2022-07-25T13:55:12.226Z,6.85
2022-07-25T13:57:40.511Z,7.32
2022-07-25T14:00:10.871Z,6.88
2022-07-25T14:02:39.494Z,6.97
2022-07-25T14:05:10.530Z,6.80
2022-07-25T14:07:38.929Z,6.72
2022-07-25T14:10:10.590Z,6.47
2022-07-25T14:12:40.559Z,6.38
2022-07-25T14:15:10.814Z,6.57
2022-07-25T14:17:39.877Z,6.80
2022-07-25T14:20:10.839Z,6.30
2022-07-25T14:22:39.648Z,6.40
2022-07-25T14:25:11.119Z,6.07
2022-07-25T14:27:40.238Z,6.30
2022-07-25T14:30:11.196Z,6.35
2022-07-25T14:32:39.578Z,6.15
2022-07-25T14:35:11.042Z,5.63
2022-07-25T14:37:40.506Z,5.90
2022-07-25T14:40:12.417Z,6.10
2022-07-25T14:42:41.899Z,6.10
2022-07-25T14:45:12.489Z,5.80
2022-07-25T14:47:42.615Z,5.68
2022-07-25T14:50:11.803Z,5.88
2022-07-25T14:52:40.414Z,6.10
2022-07-25T14:55:11.249Z,6.22
2022-07-25T14:57:39.571Z,5.80
2022-07-25T15:00:10.167Z,6.22
2022-07-25T15:02:38.420Z,5.38
2022-07-25T15:05:08.637Z,5.40
2022-07-25T15:07:38.547Z,5.70
2022-07-25T15:10:10.526Z,5.88
2022-07-25T15:12:39.255Z,5.80
2022-07-25T15:15:08.714Z,5.40
2022-07-25T15:17:37.215Z,5.40
2022-07-25T15:20:07.542Z,5.68
2022-07-25T15:22:36.304Z,5.60
2022-07-25T15:27:56.140Z,5.20
2022-07-25T15:30:29.186Z,5.05
2022-07-25T15:32:57.806Z,5.50
2022-07-25T15:35:26.201Z,5.03
2022-07-25T15:37:54.494Z,5.60
2022-07-25T15:40:23.263Z,5.43
2022-07-25T15:42:52.258Z,5.90
2022-07-25T15:45:38.028Z,5.40
2022-07-25T15:48:09.547Z,5.28
2022-07-25T15:50:40.721Z,5.75
2022-07-25T15:53:10.525Z,5.88
2022-07-25T15:55:42.204Z,5.88
2022-07-25T15:58:12.381Z,6.03
2022-07-25T16:00:43.230Z,5.70
2022-07-25T16:03:13.764Z,5.80
2022-07-25T16:05:44.195Z,5.72
2022-07-25T16:08:12.507Z,6.20
2022-07-25T16:10:41.653Z,6.00
2022-07-25T16:13:10.276Z,6.38
2022-07-25T16:15:39.694Z,6.55
2022-07-25T16:18:11.249Z,6.00
2022-07-25T16:20:39.902Z,6.25
2022-07-25T16:23:11.037Z,6.05
2022-07-25T16:25:39.901Z,6.38
2022-07-25T16:28:08.207Z,6.18
2022-07-25T16:30:36.963Z,6.38
2022-07-25T16:33:07.390Z,6.55
2022-07-25T16:35:37.178Z,6.57
2022-07-25T16:38:09.727Z,6.25
2022-07-25T16:40:38.330Z,7.18
2022-07-25T16:43:07.244Z,6.75
2022-07-25T16:45:38.027Z,7.20
2022-07-25T16:48:08.406Z,7.90
2022-07-25T16:50:38.692Z,8.55
2022-07-25T16:53:07.923Z,8.80
2022-07-25T16:55:36.577Z,8.88
2022-07-25T16:58:04.891Z,10.20
2022-07-25T17:00:33.542Z,9.15
2022-07-25T17:03:02.609Z,8.45
2022-07-25T17:05:31.271Z,8.88
2022-07-25T17:08:00.930Z,8.23
2022-07-25T17:10:34.351Z,8.43
2022-07-25T17:13:12.428Z,7.90
2022-07-25T17:16:59.681Z,7.97
2022-07-25T17:20:04.693Z,9.35
2022-07-25T17:22:54.158Z,9.00
2022-07-25T17:26:35.016Z,9.60
2022-07-25T17:33:13.327Z,6.88
2022-07-25T17:35:42.706Z,7.13
2022-07-25T17:38:14.381Z,6.28
2022-07-25T17:40:43.964Z,7.15
2022-07-25T17:43:14.922Z,5.78
2022-07-25T17:45:44.141Z,7.43
2022-07-25T17:48:13.622Z,6.40
2022-07-25T17:50:45.413Z,5.80
2022-07-25T17:53:18.649Z,6.43
2022-07-25T17:55:48.570Z,5.93
2022-07-25T17:58:21.694Z,6.18
2022-07-25T18:00:59.546Z,6.07
2022-07-25T18:03:50.298Z,5.82
2022-07-25T18:07:30.186Z,6.18
2022-07-25T18:10:04.359Z,6.10
2022-07-25T18:12:39.787Z,6.20
2022-07-25T18:15:16.732Z,6.10
2022-07-25T18:17:48.590Z,6.78
2022-07-25T18:20:18.816Z,6.38
2022-07-25T18:22:48.721Z,7.10
2022-07-25T18:25:18.738Z,6.90
2022-07-25T18:27:49.234Z,6.72
2022-07-25T18:30:19.105Z,6.82
2022-07-25T18:32:47.616Z,7.25
2022-07-25T18:35:15.919Z,6.88
2022-07-25T18:37:44.339Z,7.22
2022-07-25T18:40:13.944Z,6.60
2022-07-25T18:42:42.285Z,6.75
2022-07-25T18:45:12.628Z,7.00
2022-07-25T18:47:42.570Z,7.30
2022-07-25T18:50:11.514Z,7.85
2022-07-25T18:52:40.474Z,8.18
2022-07-25T18:55:10.618Z,7.85
2022-07-25T18:57:39.504Z,7.65
2022-07-25T19:00:10.695Z,8.00
2022-07-25T19:02:39.166Z,7.70
2022-07-25T19:05:10.319Z,7.88
2022-07-25T19:07:39.896Z,7.95
2022-07-25T19:10:09.200Z,7.60
2022-07-25T19:12:37.976Z,7.55
2022-07-25T19:15:07.870Z,7.50
2022-07-25T19:17:37.692Z,7.80
2022-07-25T19:20:09.601Z,8.00
2022-07-25T19:22:37.877Z,7.95
2022-07-25T19:25:08.514Z,8.38
2022-07-25T19:27:38.129Z,8.90
2022-07-25T19:30:13.879Z,9.50
2022-07-25T19:32:46.334Z,8.57
2022-07-25T19:35:16.061Z,8.90
2022-07-25T19:37:44.335Z,8.65
2022-07-25T19:40:13.881Z,8.63
2022-07-25T19:42:42.664Z,8.55
2022-07-25T19:45:12.255Z,9.20
2022-07-25T19:47:40.504Z,9.50
2022-07-25T19:50:10.004Z,9.30
2022-07-25T19:52:39.856Z,9.27
2022-07-25T19:55:10.019Z,9.00
2022-07-25T19:57:38.456Z,8.98
2022-07-25T20:00:08.757Z,8.77
2022-07-25T20:02:41.597Z,9.13
2022-07-25T20:05:12.293Z,9.52
2022-07-25T20:07:41.921Z,10.05
2022-07-25T20:10:11.518Z,9.20
2022-07-25T20:12:41.590Z,9.18
2022-07-25T20:15:10.483Z,9.57
2022-07-25T20:17:39.184Z,10.23
2022-07-25T20:20:09.321Z,9.07
2022-07-25T20:22:38.660Z,9.50
2022-07-25T20:25:11.737Z,9.32
2022-07-25T20:27:40.291Z,9.05
2022-07-25T20:30:11.683Z,9.32
2022-07-25T20:32:40.360Z,10.50
2022-07-25T20:35:09.443Z,9.52
2022-07-25T20:37:38.086Z,9.73
2022-07-25T20:40:11.979Z,9.63
2022-07-25T20:42:40.494Z,9.38
2022-07-25T20:45:10.268Z,8.88
2022-07-25T20:47:38.915Z,9.85
2022-07-25T20:50:09.585Z,9.27
2022-07-25T20:52:40.157Z,9.65
2022-07-25T20:55:10.804Z,9.98
2022-07-25T20:57:39.070Z,10.45
2022-07-25T21:00:09.014Z,9.70
2022-07-25T21:02:37.424Z,9.73
2022-07-25T21:05:06.932Z,9.32
2022-07-25T21:07:35.309Z,9.73
2022-07-25T21:10:03.538Z,9.48
2022-07-25T21:12:33.362Z,10.05
2022-07-25T21:15:02.108Z,11.23
2022-07-25T21:17:30.585Z,10.35
2022-07-25T21:19:58.930Z,10.13
2022-07-25T21:22:27.386Z,10.73
2022-07-25T21:24:55.733Z,10.75
2022-07-25T21:27:24.040Z,10.95
2022-07-25T21:29:53.676Z,10.95
2022-07-25T21:32:23.506Z,11.32
2022-07-25T21:34:52.173Z,12.10
2022-07-25T21:37:20.427Z,10.65
2022-07-25T21:39:49.025Z,11.32
2022-07-25T21:42:17.698Z,10.65
2022-07-25T21:44:46.680Z,10.60
2022-07-25T21:47:16.421Z,10.13
2022-07-25T21:50:13.793Z,9.95
2022-07-25T21:52:47.716Z,9.80
2022-07-25T21:55:16.877Z,9.43
2022-07-25T21:57:45.445Z,9.25
2022-07-25T22:00:15.851Z,9.30
2022-07-25T22:02:47.569Z,8.93
2022-07-25T22:05:18.710Z,9.80
2022-07-25T22:07:48.556Z,10.02
2022-07-25T22:10:19.541Z,10.23
2022-07-25T22:12:48.378Z,9.27
2022-07-25T22:15:17.279Z,9.73
2022-07-25T22:17:49.482Z,9.00
2022-07-25T22:20:19.171Z,8.70
2022-07-25T22:22:47.751Z,8.77
2022-07-25T22:25:16.257Z,8.93
2022-07-25T22:27:45.005Z,8.57
2022-07-25T22:30:18.859Z,8.02
2022-07-25T22:32:49.879Z,7.32
2022-07-25T22:35:19.154Z,7.93
2022-07-25T22:37:47.587Z,7.53
2022-07-25T22:40:16.230Z,7.53
2022-07-25T22:42:44.530Z,7.63
2022-07-25T22:45:12.946Z,7.60
2022-07-25T22:47:41.326Z,7.88
2022-07-25T22:50:11.678Z,7.28
2022-07-25T22:52:39.959Z,7.88
2022-07-25T22:55:09.389Z,6.95
2022-07-25T22:57:37.901Z,7.40
2022-07-25T23:00:11.126Z,6.95
2022-07-25T23:02:39.867Z,7.07
2022-07-25T23:05:10.966Z,7.28
2022-07-25T23:07:39.600Z,7.20
2022-07-25T23:10:09.292Z,7.20
2022-07-25T23:12:37.745Z,6.88
2022-07-25T23:15:07.247Z,6.63
2022-07-25T23:17:35.495Z,6.43
2022-07-25T23:20:04.739Z,7.28
2022-07-25T23:22:34.522Z,6.55
2022-07-25T23:25:03.017Z,6.68
2022-07-25T23:27:34.905Z,7.50
2022-07-25T23:30:05.049Z,7.22
2022-07-25T23:32:33.478Z,7.25
2022-07-25T23:35:01.747Z,6.50
2022-07-25T23:37:29.980Z,6.10
2022-07-25T23:39:59.675Z,6.13
2022-07-25T23:42:28.020Z,6.03
2022-07-25T23:44:56.376Z,7.18
2022-07-25T23:47:36.784Z,7.28
2022-07-25T23:50:10.710Z,7.75
2022-07-25T23:52:39.535Z,8.10
2022-07-25T23:55:10.828Z,7.60
2022-07-25T23:57:39.031Z,7.18
